sensor_id;sensor_type;location;lat;lon;timestamp;P1;durP1;ratioP1;P2;durP2;ratioP2
14584;SDS011;7379;51.506;11.876;2023-04-29T00:00:12;10.15;;;9.15;;
14584;SDS011;7379;51.506;11.876;2023-04-29T00:02:41;9.75;;;8.60;;
14584;SDS011;7379;51.506;11.876;2023-04-29T00:05:08;8.98;;;8.13;;
14584;SDS011;7379;51.506;11.876;2023-04-29T00:07:35;9.70;;;8.65;;
14584;SDS011;7379;51.506;11.876;2023-04-29T00:10:02;9.93;;;8.93;;
14584;SDS011;7379;51.506;11.876;2023-04-29T00:12:29;10.00;;;9.00;;
14584;SDS011;7379;51.506;11.876;2023-04-29T00:14:57;10.05;;;9.02;;
14584;SDS011;7379;51.506;11.876;2023-04-29T00:17:24;10.07;;;9.07;;
14584;SDS011;7379;51.506;11.876;2023-04-29T00:19:53;10.18;;;9.18;;
14584;SDS011;7379;51.506;11.876;2023-04-29T00:22:19;10.18;;;9.07;;
14584;SDS011;7379;51.506;11.876;2023-04-29T00:24:47;11.23;;;10.02;;
14584;SDS011;7379;51.506;11.876;2023-04-29T00:27:14;10.73;;;9.68;;
14584;SDS011;7379;51.506;11.876;2023-04-29T00:29:41;10.32;;;9.27;;
14584;SDS011;7379;51.506;11.876;2023-04-29T00:32:08;11.10;;;10.00;;
14584;SDS011;7379;51.506;11.876;2023-04-29T00:34:35;10.55;;;9.45;;
14584;SDS011;7379;51.506;11.876;2023-04-29T00:37:03;11.32;;;9.57;;
14584;SDS011;7379;51.506;11.876;2023-04-29T00:39:30;10.80;;;9.70;;
14584;SDS011;7379;51.506;11.876;2023-04-29T00:41:57;9.95;;;8.98;;
14584;SDS011;7379;51.506;11.876;2023-04-29T00:44:24;10.48;;;9.48;;
14584;SDS011;7379;51.506;11.876;2023-04-29T00:46:50;11.13;;;9.32;;
14584;SDS011;7379;51.506;11.876;2023-04-29T00:49:17;10.77;;;9.65;;
14584;SDS011;7379;51.506;11.876;2023-04-29T00:51:45;10.52;;;9.48;;
14584;SDS011;7379;51.506;11.876;2023-04-29T00:54:14;9.68;;;8.77;;
14584;SDS011;7379;51.506;11.876;2023-04-29T00:56:41;11.30;;;9.38;;
14584;SDS011;7379;51.506;11.876;2023-04-29T00:59:11;10.27;;;9.27;;
14584;SDS011;7379;51.506;11.876;2023-04-29T01:01:39;9.98;;;9.05;;
14584;SDS011;7379;51.506;11.876;2023-04-29T01:04:07;9.27;;;8.38;;
14584;SDS011;7379;51.506;11.876;2023-04-29T01:06:37;9.50;;;8.55;;
14584;SDS011;7379;51.506;11.876;2023-04-29T01:09:26;9.80;;;8.80;;
14584;SDS011;7379;51.506;11.876;2023-04-29T01:12:10;9.40;;;8.50;;
14584;SDS011;7379;51.506;11.876;2023-04-29T01:14:47;9.32;;;8.35;;
14584;SDS011;7379;51.506;11.876;2023-04-29T01:17:19;9.50;;;8.60;;
14584;SDS011;7379;51.506;11.876;2023-04-29T01:19:53;9.32;;;8.38;;
14584;SDS011;7379;51.506;11.876;2023-04-29T01:22:21;9.23;;;8.32;;
14584;SDS011;7379;51.506;11.876;2023-04-29T01:24:49;9.10;;;7.68;;
14584;SDS011;7379;51.506;11.876;2023-04-29T01:27:20;9.43;;;8.50;;
14584;SDS011;7379;51.506;11.876;2023-04-29T01:29:57;9.35;;;8.40;;
14584;SDS011;7379;51.506;11.876;2023-04-29T01:32:35;9.35;;;8.38;;
14584;SDS011;7379;51.506;11.876;2023-04-29T01:35:10;9.50;;;8.50;;
14584;SDS011;7379;51.506;11.876;2023-04-29T01:37:47;8.80;;;7.88;;
14584;SDS011;7379;51.506;11.876;2023-04-29T01:40:25;8.73;;;7.82;;
14584;SDS011;7379;51.506;11.876;2023-04-29T01:42:58;9.88;;;8.88;;
14584;SDS011;7379;51.506;11.876;2023-04-29T01:45:27;9.07;;;8.18;;
14584;SDS011;7379;51.506;11.876;2023-04-29T01:47:55;9.52;;;8.48;;
14584;SDS011;7379;51.506;11.876;2023-04-29T01:50:24;9.90;;;8.82;;
14584;SDS011;7379;51.506;11.876;2023-04-29T01:52:50;9.30;;;8.40;;
14584;SDS011;7379;51.506;11.876;2023-04-29T01:55:18;9.35;;;8.45;;
14584;SDS011;7379;51.506;11.876;2023-04-29T01:57:47;9.52;;;8.52;;
14584;SDS011;7379;51.506;11.876;2023-04-29T02:00:13;9.85;;;8.95;;
14584;SDS011;7379;51.506;11.876;2023-04-29T02:02:40;10.02;;;8.90;;
14584;SDS011;7379;51.506;11.876;2023-04-29T02:05:07;10.10;;;9.00;;
14584;SDS011;7379;51.506;11.876;2023-04-29T02:07:35;9.20;;;8.30;;
14584;SDS011;7379;51.506;11.876;2023-04-29T02:10:02;9.40;;;8.50;;
14584;SDS011;7379;51.506;11.876;2023-04-29T02:12:29;10.52;;;9.43;;
14584;SDS011;7379;51.506;11.876;2023-04-29T02:14:57;10.77;;;9.68;;
14584;SDS011;7379;51.506;11.876;2023-04-29T02:17:24;10.45;;;9.40;;
14584;SDS011;7379;51.506;11.876;2023-04-29T02:19:51;9.98;;;8.98;;
14584;SDS011;7379;51.506;11.876;2023-04-29T02:22:19;10.02;;;9.02;;
14584;SDS011;7379;51.506;11.876;2023-04-29T02:24:46;10.15;;;9.15;;
14584;SDS011;7379;51.506;11.876;2023-04-29T02:27:12;11.10;;;10.00;;
14584;SDS011;7379;51.506;11.876;2023-04-29T02:29:39;10.00;;;9.00;;
14584;SDS011;7379;51.506;11.876;2023-04-29T02:32:08;10.68;;;9.57;;
14584;SDS011;7379;51.506;11.876;2023-04-29T02:34:35;10.07;;;8.90;;
14584;SDS011;7379;51.506;11.876;2023-04-29T02:37:02;10.40;;;9.35;;
14584;SDS011;7379;51.506;11.876;2023-04-29T02:39:29;11.02;;;9.80;;
14584;SDS011;7379;51.506;11.876;2023-04-29T02:41:56;10.90;;;9.77;;
14584;SDS011;7379;51.506;11.876;2023-04-29T02:44:23;12.10;;;10.90;;
14584;SDS011;7379;51.506;11.876;2023-04-29T02:46:49;11.57;;;10.27;;
14584;SDS011;7379;51.506;11.876;2023-04-29T02:49:18;11.05;;;9.88;;
14584;SDS011;7379;51.506;11.876;2023-04-29T02:51:44;11.25;;;10.05;;
14584;SDS011;7379;51.506;11.876;2023-04-29T02:54:13;10.55;;;9.48;;
14584;SDS011;7379;51.506;11.876;2023-04-29T02:56:40;11.07;;;9.52;;
14584;SDS011;7379;51.506;11.876;2023-04-29T02:59:07;11.10;;;9.90;;
14584;SDS011;7379;51.506;11.876;2023-04-29T03:01:34;11.27;;;9.73;;
14584;SDS011;7379;51.506;11.876;2023-04-29T03:04:02;9.88;;;8.93;;
14584;SDS011;7379;51.506;11.876;2023-04-29T03:06:31;10.60;;;9.50;;
14584;SDS011;7379;51.506;11.876;2023-04-29T03:08:58;11.18;;;9.93;;
14584;SDS011;7379;51.506;11.876;2023-04-29T03:11:25;10.55;;;9.45;;
14584;SDS011;7379;51.506;11.876;2023-04-29T03:13:52;10.88;;;9.73;;
14584;SDS011;7379;51.506;11.876;2023-04-29T03:16:19;11.32;;;9.80;;
14584;SDS011;7379;51.506;11.876;2023-04-29T03:18:46;11.02;;;9.93;;
14584;SDS011;7379;51.506;11.876;2023-04-29T03:21:13;10.88;;;9.77;;
14584;SDS011;7379;51.506;11.876;2023-04-29T03:23:41;10.98;;;9.65;;
14584;SDS011;7379;51.506;11.876;2023-04-29T03:26:08;11.10;;;9.57;;
14584;SDS011;7379;51.506;11.876;2023-04-29T03:28:35;11.52;;;10.32;;
14584;SDS011;7379;51.506;11.876;2023-04-29T03:31:02;10.60;;;9.50;;
14584;SDS011;7379;51.506;11.876;2023-04-29T03:33:29;11.98;;;10.70;;
14584;SDS011;7379;51.506;11.876;2023-04-29T03:35:56;10.98;;;9.88;;
14584;SDS011;7379;51.506;11.876;2023-04-29T03:38:22;10.07;;;9.07;;
14584;SDS011;7379;51.506;11.876;2023-04-29T03:40:51;9.98;;;9.02;;
14584;SDS011;7379;51.506;11.876;2023-04-29T03:43:18;11.20;;;10.10;;
14584;SDS011;7379;51.506;11.876;2023-04-29T03:45:44;10.18;;;9.18;;
14584;SDS011;7379;51.506;11.876;2023-04-29T03:48:11;11.15;;;9.98;;
14584;SDS011;7379;51.506;11.876;2023-04-29T03:50:38;10.38;;;9.38;;
14584;SDS011;7379;51.506;11.876;2023-04-29T03:53:05;11.02;;;9.80;;
14584;SDS011;7379;51.506;11.876;2023-04-29T03:55:32;11.32;;;10.13;;
14584;SDS011;7379;51.506;11.876;2023-04-29T03:58:00;11.02;;;9.93;;
14584;SDS011;7379;51.506;11.876;2023-04-29T04:00:27;11.07;;;9.98;;
14584;SDS011;7379;51.506;11.876;2023-04-29T04:02:55;10.85;;;9.70;;
14584;SDS011;7379;51.506;11.876;2023-04-29T04:05:22;11.02;;;9.73;;
14584;SDS011;7379;51.506;11.876;2023-04-29T04:07:49;10.15;;;9.02;;
14584;SDS011;7379;51.506;11.876;2023-04-29T04:10:16;10.65;;;9.55;;
14584;SDS011;7379;51.506;11.876;2023-04-29T04:12:43;9.80;;;8.80;;
14584;SDS011;7379;51.506;11.876;2023-04-29T04:15:12;10.27;;;8.80;;
14584;SDS011;7379;51.506;11.876;2023-04-29T04:17:40;10.02;;;8.93;;
14584;SDS011;7379;51.506;11.876;2023-04-29T04:20:07;10.55;;;9.55;;
14584;SDS011;7379;51.506;11.876;2023-04-29T04:22:35;10.63;;;9.52;;
14584;SDS011;7379;51.506;11.876;2023-04-29T04:25:02;11.23;;;10.05;;
14584;SDS011;7379;51.506;11.876;2023-04-29T04:27:29;11.90;;;9.57;;
14584;SDS011;7379;51.506;11.876;2023-04-29T04:29:56;10.32;;;9.23;;
14584;SDS011;7379;51.506;11.876;2023-04-29T04:32:25;13.07;;;9.30;;
14584;SDS011;7379;51.506;11.876;2023-04-29T04:34:52;12.93;;;9.70;;
14584;SDS011;7379;51.506;11.876;2023-04-29T04:37:19;11.32;;;10.13;;
14584;SDS011;7379;51.506;11.876;2023-04-29T04:39:45;11.65;;;10.15;;
14584;SDS011;7379;51.506;11.876;2023-04-29T04:42:13;11.05;;;9.75;;
14584;SDS011;7379;51.506;11.876;2023-04-29T04:44:39;11.57;;;9.82;;
14584;SDS011;7379;51.506;11.876;2023-04-29T04:47:06;11.32;;;9.70;;
14584;SDS011;7379;51.506;11.876;2023-04-29T04:49:34;11.88;;;10.40;;
14584;SDS011;7379;51.506;11.876;2023-04-29T04:52:01;11.88;;;10.25;;
14584;SDS011;7379;51.506;11.876;2023-04-29T04:54:28;12.38;;;10.90;;
14584;SDS011;7379;51.506;11.876;2023-04-29T04:56:56;12.95;;;11.48;;
14584;SDS011;7379;51.506;11.876;2023-04-29T04:59:22;12.57;;;10.35;;
14584;SDS011;7379;51.506;11.876;2023-04-29T05:01:49;11.90;;;10.65;;
14584;SDS011;7379;51.506;11.876;2023-04-29T05:04:16;15.05;;;11.70;;
14584;SDS011;7379;51.506;11.876;2023-04-29T05:06:44;12.20;;;10.40;;
14584;SDS011;7379;51.506;11.876;2023-04-29T05:09:11;12.48;;;10.48;;
14584;SDS011;7379;51.506;11.876;2023-04-29T05:11:38;11.20;;;10.00;;
14584;SDS011;7379;51.506;11.876;2023-04-29T05:14:05;12.70;;;10.90;;
14584;SDS011;7379;51.506;11.876;2023-04-29T05:16:32;11.73;;;10.40;;
14584;SDS011;7379;51.506;11.876;2023-04-29T05:18:59;11.98;;;10.23;;
14584;SDS011;7379;51.506;11.876;2023-04-29T05:21:26;12.07;;;10.75;;
14584;SDS011;7379;51.506;11.876;2023-04-29T05:23:54;11.68;;;10.48;;
14584;SDS011;7379;51.506;11.876;2023-04-29T05:26:21;13.77;;;11.32;;
14584;SDS011;7379;51.506;11.876;2023-04-29T05:28:48;10.73;;;9.38;;
14584;SDS011;7379;51.506;11.876;2023-04-29T05:31:15;10.77;;;9.68;;
14584;SDS011;7379;51.506;11.876;2023-04-29T05:33:41;12.80;;;10.73;;
14584;SDS011;7379;51.506;11.876;2023-04-29T05:36:08;12.55;;;11.20;;
14584;SDS011;7379;51.506;11.876;2023-04-29T05:38:35;12.25;;;10.85;;
14584;SDS011;7379;51.506;11.876;2023-04-29T05:41:03;11.57;;;9.95;;
14584;SDS011;7379;51.506;11.876;2023-04-29T05:43:30;12.05;;;10.38;;
14584;SDS011;7379;51.506;11.876;2023-04-29T05:45:57;14.02;;;11.65;;
14584;SDS011;7379;51.506;11.876;2023-04-29T05:48:24;12.18;;;10.40;;
14584;SDS011;7379;51.506;11.876;2023-04-29T05:50:50;14.15;;;10.48;;
14584;SDS011;7379;51.506;11.876;2023-04-29T05:53:18;12.10;;;10.80;;
14584;SDS011;7379;51.506;11.876;2023-04-29T05:55:45;12.65;;;10.63;;
14584;SDS011;7379;51.506;11.876;2023-04-29T05:58:13;12.82;;;10.20;;
14584;SDS011;7379;51.506;11.876;2023-04-29T06:00:40;11.75;;;10.00;;
14584;SDS011;7379;51.506;11.876;2023-04-29T06:03:08;11.15;;;9.98;;
14584;SDS011;7379;51.506;11.876;2023-04-29T06:05:34;11.30;;;9.73;;
14584;SDS011;7379;51.506;11.876;2023-04-29T06:08:02;11.85;;;9.85;;
14584;SDS011;7379;51.506;11.876;2023-04-29T06:10:29;11.73;;;10.20;;
14584;SDS011;7379;51.506;11.876;2023-04-29T06:12:57;11.88;;;9.43;;
14584;SDS011;7379;51.506;11.876;2023-04-29T06:15:25;12.15;;;9.60;;
14584;SDS011;7379;51.506;11.876;2023-04-29T06:17:52;9.95;;;8.77;;
14584;SDS011;7379;51.506;11.876;2023-04-29T06:20:19;10.43;;;9.30;;
14584;SDS011;7379;51.506;11.876;2023-04-29T06:22:46;11.07;;;9.30;;
14584;SDS011;7379;51.506;11.876;2023-04-29T06:25:13;10.60;;;8.65;;
14584;SDS011;7379;51.506;11.876;2023-04-29T06:27:40;10.57;;;8.63;;
14584;SDS011;7379;51.506;11.876;2023-04-29T06:30:07;10.38;;;8.18;;
14584;SDS011;7379;51.506;11.876;2023-04-29T06:32:36;11.55;;;9.23;;
14584;SDS011;7379;51.506;11.876;2023-04-29T06:35:04;12.32;;;9.23;;
14584;SDS011;7379;51.506;11.876;2023-04-29T06:37:31;9.85;;;8.32;;
14584;SDS011;7379;51.506;11.876;2023-04-29T06:39:58;10.45;;;7.82;;
14584;SDS011;7379;51.506;11.876;2023-04-29T06:42:25;10.52;;;7.78;;
14584;SDS011;7379;51.506;11.876;2023-04-29T06:44:52;9.88;;;7.93;;
14584;SDS011;7379;51.506;11.876;2023-04-29T06:47:19;8.48;;;7.03;;
14584;SDS011;7379;51.506;11.876;2023-04-29T06:49:47;10.82;;;8.10;;
14584;SDS011;7379;51.506;11.876;2023-04-29T06:52:14;10.75;;;7.93;;
14584;SDS011;7379;51.506;11.876;2023-04-29T06:54:41;10.05;;;8.05;;
14584;SDS011;7379;51.506;11.876;2023-04-29T06:57:08;9.40;;;8.05;;
14584;SDS011;7379;51.506;11.876;2023-04-29T06:59:35;9.23;;;7.80;;
14584;SDS011;7379;51.506;11.876;2023-04-29T07:02:02;10.40;;;8.57;;
14584;SDS011;7379;51.506;11.876;2023-04-29T07:04:28;11.52;;;8.80;;
14584;SDS011;7379;51.506;11.876;2023-04-29T07:06:57;12.15;;;9.20;;
14584;SDS011;7379;51.506;11.876;2023-04-29T07:09:23;10.85;;;9.63;;
14584;SDS011;7379;51.506;11.876;2023-04-29T07:11:51;12.93;;;11.13;;
14584;SDS011;7379;51.506;11.876;2023-04-29T07:14:18;13.93;;;11.70;;
14584;SDS011;7379;51.506;11.876;2023-04-29T07:20:08;13.00;;;11.65;;
14584;SDS011;7379;51.506;11.876;2023-04-29T07:22:37;14.75;;;12.88;;
14584;SDS011;7379;51.506;11.876;2023-04-29T07:25:04;14.00;;;12.52;;
14584;SDS011;7379;51.506;11.876;2023-04-29T07:27:33;14.80;;;13.15;;
14584;SDS011;7379;51.506;11.876;2023-04-29T07:30:00;14.82;;;13.07;;
14584;SDS011;7379;51.506;11.876;2023-04-29T07:32:27;15.10;;;12.90;;
14584;SDS011;7379;51.506;11.876;2023-04-29T07:34:55;18.23;;;13.40;;
14584;SDS011;7379;51.506;11.876;2023-04-29T07:37:22;20.85;;;13.73;;
14584;SDS011;7379;51.506;11.876;2023-04-29T07:39:50;17.25;;;13.02;;
14584;SDS011;7379;51.506;11.876;2023-04-29T07:42:17;17.33;;;12.57;;
14584;SDS011;7379;51.506;11.876;2023-04-29T07:44:44;16.65;;;12.35;;
14584;SDS011;7379;51.506;11.876;2023-04-29T07:47:11;14.43;;;12.32;;
14584;SDS011;7379;51.506;11.876;2023-04-29T07:49:38;16.55;;;12.57;;
14584;SDS011;7379;51.506;11.876;2023-04-29T07:52:05;14.07;;;12.35;;
14584;SDS011;7379;51.506;11.876;2023-04-29T07:54:34;14.75;;;12.55;;
14584;SDS011;7379;51.506;11.876;2023-04-29T07:57:02;13.68;;;12.13;;
14584;SDS011;7379;51.506;11.876;2023-04-29T07:59:29;12.27;;;10.98;;
14584;SDS011;7379;51.506;11.876;2023-04-29T08:01:56;13.25;;;11.07;;
14584;SDS011;7379;51.506;11.876;2023-04-29T08:04:23;12.15;;;10.82;;
14584;SDS011;7379;51.506;11.876;2023-04-29T08:06:50;11.43;;;10.23;;
14584;SDS011;7379;51.506;11.876;2023-04-29T08:09:17;11.48;;;10.10;;
14584;SDS011;7379;51.506;11.876;2023-04-29T08:11:43;10.70;;;9.60;;
14584;SDS011;7379;51.506;11.876;2023-04-29T08:14:12;10.88;;;9.65;;
14584;SDS011;7379;51.506;11.876;2023-04-29T08:16:38;10.90;;;9.52;;
14584;SDS011;7379;51.506;11.876;2023-04-29T08:19:05;11.52;;;9.77;;
14584;SDS011;7379;51.506;11.876;2023-04-29T08:21:32;9.75;;;8.70;;
14584;SDS011;7379;51.506;11.876;2023-04-29T08:23:59;10.25;;;9.25;;
14584;SDS011;7379;51.506;11.876;2023-04-29T08:26:25;10.77;;;9.68;;
14584;SDS011;7379;51.506;11.876;2023-04-29T08:28:52;10.13;;;8.85;;
14584;SDS011;7379;51.506;11.876;2023-04-29T08:31:20;10.50;;;9.50;;
14584;SDS011;7379;51.506;11.876;2023-04-29T08:33:47;10.68;;;9.50;;
14584;SDS011;7379;51.506;11.876;2023-04-29T08:36:14;10.65;;;9.50;;
14584;SDS011;7379;51.506;11.876;2023-04-29T08:38:41;10.35;;;9.25;;
14584;SDS011;7379;51.506;11.876;2023-04-29T08:41:09;11.25;;;9.38;;
14584;SDS011;7379;51.506;11.876;2023-04-29T08:43:38;9.73;;;8.73;;
14584;SDS011;7379;51.506;11.876;2023-04-29T08:46:05;11.27;;;9.18;;
14584;SDS011;7379;51.506;11.876;2023-04-29T08:48:35;9.93;;;8.80;;
14584;SDS011;7379;51.506;11.876;2023-04-29T08:51:04;10.63;;;8.70;;
14584;SDS011;7379;51.506;11.876;2023-04-29T08:53:30;10.32;;;9.20;;
14584;SDS011;7379;51.506;11.876;2023-04-29T08:55:59;10.10;;;8.85;;
14584;SDS011;7379;51.506;11.876;2023-04-29T08:58:28;11.02;;;9.02;;
14584;SDS011;7379;51.506;11.876;2023-04-29T09:00:59;10.90;;;8.93;;
14584;SDS011;7379;51.506;11.876;2023-04-29T09:03:28;10.73;;;9.52;;
14584;SDS011;7379;51.506;11.876;2023-04-29T09:05:59;11.38;;;9.20;;
14584;SDS011;7379;51.506;11.876;2023-04-29T09:08:27;11.35;;;9.13;;
14584;SDS011;7379;51.506;11.876;2023-04-29T09:10:55;11.57;;;9.70;;
14584;SDS011;7379;51.506;11.876;2023-04-29T09:13:23;12.82;;;9.82;;
14584;SDS011;7379;51.506;11.876;2023-04-29T09:15:50;11.98;;;9.60;;
14584;SDS011;7379;51.506;11.876;2023-04-29T09:21:12;13.10;;;11.02;;
14584;SDS011;7379;51.506;11.876;2023-04-29T09:23:40;11.88;;;9.95;;
14584;SDS011;7379;51.506;11.876;2023-04-29T09:26:07;11.50;;;10.00;;
14584;SDS011;7379;51.506;11.876;2023-04-29T09:28:34;12.18;;;10.60;;
14584;SDS011;7379;51.506;11.876;2023-04-29T09:31:01;10.63;;;9.40;;
14584;SDS011;7379;51.506;11.876;2023-04-29T09:33:30;11.50;;;10.23;;
14584;SDS011;7379;51.506;11.876;2023-04-29T09:35:57;11.30;;;9.65;;
14584;SDS011;7379;51.506;11.876;2023-04-29T09:38:26;11.13;;;9.43;;
14584;SDS011;7379;51.506;11.876;2023-04-29T09:40:53;10.10;;;8.55;;
14584;SDS011;7379;51.506;11.876;2023-04-29T09:43:20;9.75;;;8.75;;
14584;SDS011;7379;51.506;11.876;2023-04-29T09:45:47;9.13;;;8.15;;
14584;SDS011;7379;51.506;11.876;2023-04-29T09:48:14;8.45;;;7.55;;
14584;SDS011;7379;51.506;11.876;2023-04-29T09:50:43;8.07;;;7.28;;
14584;SDS011;7379;51.506;11.876;2023-04-29T09:53:11;8.40;;;7.30;;
14584;SDS011;7379;51.506;11.876;2023-04-29T09:55:59;8.02;;;7.22;;
14584;SDS011;7379;51.506;11.876;2023-04-29T09:58:27;7.90;;;7.10;;
14584;SDS011;7379;51.506;11.876;2023-04-29T10:00:55;7.85;;;6.95;;
14584;SDS011;7379;51.506;11.876;2023-04-29T10:03:26;8.20;;;7.40;;
14584;SDS011;7379;51.506;11.876;2023-04-29T10:05:56;7.85;;;6.80;;
14584;SDS011;7379;51.506;11.876;2023-04-29T10:08:24;7.65;;;6.95;;
14584;SDS011;7379;51.506;11.876;2023-04-29T10:10:53;7.82;;;7.03;;
14584;SDS011;7379;51.506;11.876;2023-04-29T10:13:23;7.80;;;7.00;;
14584;SDS011;7379;51.506;11.876;2023-04-29T10:15:51;8.80;;;7.50;;
14584;SDS011;7379;51.506;11.876;2023-04-29T10:18:29;8.38;;;7.57;;
14584;SDS011;7379;51.506;11.876;2023-04-29T10:21:01;8.48;;;7.15;;
14584;SDS011;7379;51.506;11.876;2023-04-29T10:23:28;9.05;;;8.15;;
14584;SDS011;7379;51.506;11.876;2023-04-29T10:25:57;9.60;;;8.57;;
14584;SDS011;7379;51.506;11.876;2023-04-29T10:28:27;9.35;;;8.38;;
14584;SDS011;7379;51.506;11.876;2023-04-29T10:30:57;10.00;;;9.00;;
14584;SDS011;7379;51.506;11.876;2023-04-29T10:33:28;9.88;;;8.82;;
14584;SDS011;7379;51.506;11.876;2023-04-29T10:35:57;9.98;;;8.98;;
14584;SDS011;7379;51.506;11.876;2023-04-29T10:38:27;10.80;;;9.70;;
14584;SDS011;7379;51.506;11.876;2023-04-29T10:40:58;10.43;;;9.35;;
14584;SDS011;7379;51.506;11.876;2023-04-29T10:43:29;11.95;;;9.73;;
14584;SDS011;7379;51.506;11.876;2023-04-29T10:48:45;11.80;;;10.48;;
14584;SDS011;7379;51.506;11.876;2023-04-29T10:51:13;11.57;;;10.38;;
14584;SDS011;7379;51.506;11.876;2023-04-29T10:53:58;11.85;;;10.68;;
14584;SDS011;7379;51.506;11.876;2023-04-29T10:56:37;13.18;;;11.88;;
14584;SDS011;7379;51.506;11.876;2023-04-29T10:59:08;13.27;;;11.88;;
14584;SDS011;7379;51.506;11.876;2023-04-29T11:01:44;13.32;;;12.00;;
14584;SDS011;7379;51.506;11.876;2023-04-29T11:04:15;13.23;;;11.82;;
14584;SDS011;7379;51.506;11.876;2023-04-29T11:06:44;13.18;;;11.77;;
14584;SDS011;7379;51.506;11.876;2023-04-29T11:09:13;12.98;;;11.70;;
14584;SDS011;7379;51.506;11.876;2023-04-29T11:11:56;15.02;;;12.52;;
14584;SDS011;7379;51.506;11.876;2023-04-29T11:14:25;16.60;;;13.90;;
14584;SDS011;7379;51.506;11.876;2023-04-29T11:16:55;13.57;;;12.20;;
14584;SDS011;7379;51.506;11.876;2023-04-29T11:19:23;14.95;;;13.38;;
14584;SDS011;7379;51.506;11.876;2023-04-29T11:22:09;15.27;;;13.70;;
14584;SDS011;7379;51.506;11.876;2023-04-29T11:24:47;15.88;;;13.38;;
14584;SDS011;7379;51.506;11.876;2023-04-29T11:27:17;14.75;;;12.25;;
14584;SDS011;7379;51.506;11.876;2023-04-29T11:29:48;16.05;;;13.25;;
14584;SDS011;7379;51.506;11.876;2023-04-29T11:32:18;16.00;;;13.13;;
14584;SDS011;7379;51.506;11.876;2023-04-29T11:34:46;14.90;;;13.43;;
14584;SDS011;7379;51.506;11.876;2023-04-29T11:37:17;14.82;;;13.43;;
14584;SDS011;7379;51.506;11.876;2023-04-29T11:39:49;16.90;;;13.30;;
14584;SDS011;7379;51.506;11.876;2023-04-29T11:42:20;14.35;;;12.85;;
14584;SDS011;7379;51.506;11.876;2023-04-29T11:44:50;14.93;;;12.98;;
14584;SDS011;7379;51.506;11.876;2023-04-29T11:47:18;14.50;;;13.00;;
14584;SDS011;7379;51.506;11.876;2023-04-29T11:49:45;14.82;;;12.23;;
14584;SDS011;7379;51.506;11.876;2023-04-29T11:52:12;14.15;;;12.63;;
14584;SDS011;7379;51.506;11.876;2023-04-29T11:54:39;14.07;;;12.68;;
14584;SDS011;7379;51.506;11.876;2023-04-29T11:57:08;14.13;;;12.63;;
14584;SDS011;7379;51.506;11.876;2023-04-29T11:59:37;14.65;;;13.15;;
14584;SDS011;7379;51.506;11.876;2023-04-29T12:02:07;13.98;;;12.63;;
14584;SDS011;7379;51.506;11.876;2023-04-29T12:04:43;15.30;;;13.40;;
14584;SDS011;7379;51.506;11.876;2023-04-29T12:07:10;13.43;;;11.57;;
14584;SDS011;7379;51.506;11.876;2023-04-29T12:09:40;13.00;;;11.73;;
14584;SDS011;7379;51.506;11.876;2023-04-29T12:12:08;12.70;;;11.40;;
14584;SDS011;7379;51.506;11.876;2023-04-29T12:14:35;12.82;;;11.52;;
14584;SDS011;7379;51.506;11.876;2023-04-29T12:17:04;12.75;;;11.43;;
14584;SDS011;7379;51.506;11.876;2023-04-29T12:19:31;12.25;;;11.00;;
14584;SDS011;7379;51.506;11.876;2023-04-29T12:21:58;12.95;;;11.57;;
14584;SDS011;7379;51.506;11.876;2023-04-29T12:24:25;12.90;;;11.57;;
14584;SDS011;7379;51.506;11.876;2023-04-29T12:26:53;11.98;;;10.73;;
14584;SDS011;7379;51.506;11.876;2023-04-29T12:29:20;11.63;;;10.52;;
14584;SDS011;7379;51.506;11.876;2023-04-29T12:31:48;11.45;;;10.25;;
14584;SDS011;7379;51.506;11.876;2023-04-29T12:34:17;12.23;;;10.82;;
14584;SDS011;7379;51.506;11.876;2023-04-29T12:36:50;11.45;;;10.35;;
14584;SDS011;7379;51.506;11.876;2023-04-29T12:39:17;11.18;;;10.07;;
14584;SDS011;7379;51.506;11.876;2023-04-29T12:41:43;11.23;;;9.90;;
14584;SDS011;7379;51.506;11.876;2023-04-29T12:44:10;11.65;;;10.45;;
14584;SDS011;7379;51.506;11.876;2023-04-29T12:46:37;11.05;;;9.95;;
14584;SDS011;7379;51.506;11.876;2023-04-29T12:49:05;12.00;;;10.80;;
14584;SDS011;7379;51.506;11.876;2023-04-29T12:51:34;11.68;;;10.57;;
14584;SDS011;7379;51.506;11.876;2023-04-29T12:54:02;12.27;;;11.07;;
14584;SDS011;7379;51.506;11.876;2023-04-29T12:56:30;12.02;;;10.80;;
14584;SDS011;7379;51.506;11.876;2023-04-29T12:59:03;12.65;;;10.60;;
14584;SDS011;7379;51.506;11.876;2023-04-29T13:01:31;12.93;;;11.40;;
14584;SDS011;7379;51.506;11.876;2023-04-29T13:03:58;14.70;;;11.32;;
14584;SDS011;7379;51.506;11.876;2023-04-29T13:06:25;12.70;;;11.27;;
14584;SDS011;7379;51.506;11.876;2023-04-29T13:08:53;12.18;;;10.98;;
14584;SDS011;7379;51.506;11.876;2023-04-29T13:11:19;13.25;;;11.30;;
14584;SDS011;7379;51.506;11.876;2023-04-29T13:13:46;12.25;;;11.13;;
14584;SDS011;7379;51.506;11.876;2023-04-29T13:16:13;13.10;;;11.45;;
14584;SDS011;7379;51.506;11.876;2023-04-29T13:18:40;13.15;;;11.63;;
14584;SDS011;7379;51.506;11.876;2023-04-29T13:21:07;13.07;;;11.55;;
14584;SDS011;7379;51.506;11.876;2023-04-29T13:23:34;12.63;;;11.43;;
14584;SDS011;7379;51.506;11.876;2023-04-29T13:26:02;12.52;;;11.30;;
14584;SDS011;7379;51.506;11.876;2023-04-29T13:28:30;13.38;;;10.82;;
14584;SDS011;7379;51.506;11.876;2023-04-29T13:30:56;11.10;;;10.00;;
14584;SDS011;7379;51.506;11.876;2023-04-29T13:33:23;12.05;;;10.27;;
14584;SDS011;7379;51.506;11.876;2023-04-29T13:35:50;12.57;;;10.43;;
14584;SDS011;7379;51.506;11.876;2023-04-29T13:38:17;11.15;;;10.02;;
14584;SDS011;7379;51.506;11.876;2023-04-29T13:40:43;11.30;;;10.20;;
14584;SDS011;7379;51.506;11.876;2023-04-29T13:43:12;11.13;;;9.95;;
14584;SDS011;7379;51.506;11.876;2023-04-29T13:45:39;11.02;;;9.93;;
14584;SDS011;7379;51.506;11.876;2023-04-29T13:48:05;10.68;;;9.68;;
14584;SDS011;7379;51.506;11.876;2023-04-29T13:50:33;10.98;;;9.90;;
14584;SDS011;7379;51.506;11.876;2023-04-29T13:53:00;11.35;;;10.25;;
14584;SDS011;7379;51.506;11.876;2023-04-29T13:55:27;15.27;;;10.43;;
14584;SDS011;7379;51.506;11.876;2023-04-29T13:57:54;12.10;;;10.07;;
14584;SDS011;7379;51.506;11.876;2023-04-29T14:00:22;11.52;;;10.43;;
14584;SDS011;7379;51.506;11.876;2023-04-29T14:02:49;11.52;;;10.30;;
14584;SDS011;7379;51.506;11.876;2023-04-29T14:05:15;10.15;;;9.15;;
14584;SDS011;7379;51.506;11.876;2023-04-29T14:07:42;10.82;;;9.73;;
14584;SDS011;7379;51.506;11.876;2023-04-29T14:10:09;10.02;;;9.13;;
14584;SDS011;7379;51.506;11.876;2023-04-29T14:12:36;11.02;;;9.55;;
14584;SDS011;7379;51.506;11.876;2023-04-29T14:15:03;14.63;;;10.07;;
14584;SDS011;7379;51.506;11.876;2023-04-29T14:17:33;9.48;;;8.50;;
14584;SDS011;7379;51.506;11.876;2023-04-29T14:20:00;12.73;;;8.57;;
14584;SDS011;7379;51.506;11.876;2023-04-29T14:22:28;13.65;;;9.20;;
14584;SDS011;7379;51.506;11.876;2023-04-29T14:24:54;9.90;;;8.75;;
14584;SDS011;7379;51.506;11.876;2023-04-29T14:27:21;9.75;;;8.75;;
14584;SDS011;7379;51.506;11.876;2023-04-29T14:29:48;12.38;;;8.73;;
14584;SDS011;7379;51.506;11.876;2023-04-29T14:32:15;10.77;;;9.18;;
14584;SDS011;7379;51.506;11.876;2023-04-29T14:34:43;10.63;;;8.45;;
14584;SDS011;7379;51.506;11.876;2023-04-29T14:37:10;9.48;;;8.35;;
14584;SDS011;7379;51.506;11.876;2023-04-29T14:39:37;10.45;;;8.18;;
14584;SDS011;7379;51.506;11.876;2023-04-29T14:42:03;9.02;;;7.85;;
14584;SDS011;7379;51.506;11.876;2023-04-29T14:44:30;9.90;;;8.25;;